createdAt,value
2018-10-18T00:02:30.155Z,11.70
2018-10-18T00:05:04.079Z,11.70
2018-10-18T00:07:37.403Z,11.60
2018-10-18T00:10:10.775Z,11.70
2018-10-18T00:12:44.049Z,11.70
2018-10-18T00:15:17.283Z,11.70
2018-10-18T00:17:50.692Z,11.70
2018-10-18T00:20:23.940Z,11.70
2018-10-18T00:22:57.249Z,11.60
2018-10-18T00:25:30.502Z,11.60
2018-10-18T00:28:03.675Z,11.50
2018-10-18T00:30:36.988Z,11.50
2018-10-18T00:33:10.135Z,11.50
2018-10-18T00:35:43.517Z,11.50
2018-10-18T00:38:17.409Z,11.50
2018-10-18T00:40:50.555Z,11.40
2018-10-18T00:43:23.909Z,11.50
2018-10-18T00:45:57.123Z,11.50
2018-10-18T00:48:30.266Z,11.50
2018-10-18T00:51:03.528Z,11.50
2018-10-18T00:53:36.644Z,11.50
2018-10-18T00:56:10.428Z,11.50
2018-10-18T00:58:43.639Z,11.50
2018-10-18T01:01:17.015Z,11.50
2018-10-18T01:03:50.320Z,11.50
2018-10-18T01:06:23.904Z,11.40
2018-10-18T01:08:57.260Z,11.30
2018-10-18T01:11:30.943Z,11.30
2018-10-18T01:14:04.567Z,11.20
2018-10-18T01:16:37.987Z,11.20
2018-10-18T01:19:11.719Z,11.20
2018-10-18T01:21:45.311Z,11.10
2018-10-18T01:24:18.790Z,11.10
2018-10-18T01:26:52.150Z,11.10
2018-10-18T01:29:26.355Z,11.00
2018-10-18T01:31:59.628Z,11.00
2018-10-18T01:34:32.948Z,11.00
2018-10-18T01:37:06.485Z,10.90
2018-10-18T01:39:40.517Z,10.90
2018-10-18T01:42:14.351Z,10.90
2018-10-18T01:44:47.718Z,10.90
2018-10-18T01:47:21.457Z,10.80
2018-10-18T01:49:54.964Z,10.80
2018-10-18T01:52:28.110Z,10.80
2018-10-18T01:55:01.583Z,10.80
2018-10-18T01:57:35.058Z,10.80
2018-10-18T02:00:08.755Z,10.80
2018-10-18T02:02:42.080Z,10.80
2018-10-18T02:05:15.389Z,10.80
2018-10-18T02:07:48.610Z,10.80
2018-10-18T02:10:22.005Z,10.80
2018-10-18T02:12:55.209Z,10.80
2018-10-18T02:15:29.164Z,10.80
2018-10-18T02:18:02.498Z,10.80
2018-10-18T02:20:35.675Z,10.80
2018-10-18T02:23:09.588Z,10.90
2018-10-18T02:25:42.801Z,10.90
2018-10-18T02:28:16.081Z,10.90
2018-10-18T02:30:49.974Z,10.90
2018-10-18T02:33:23.228Z,10.90
2018-10-18T02:35:56.658Z,10.90
2018-10-18T02:38:29.854Z,10.80
2018-10-18T02:41:03.199Z,10.80
2018-10-18T02:43:36.344Z,10.70
2018-10-18T02:46:09.855Z,10.70
2018-10-18T02:48:43.137Z,10.60
2018-10-18T02:51:16.404Z,10.60
2018-10-18T02:53:49.624Z,10.50
2018-10-18T02:56:22.850Z,10.50
2018-10-18T02:58:56.120Z,10.50
2018-10-18T03:01:29.478Z,10.50
2018-10-18T03:04:02.810Z,10.50
2018-10-18T03:06:36.197Z,10.40
2018-10-18T03:09:10.574Z,10.40
2018-10-18T03:11:43.849Z,10.40
2018-10-18T03:14:17.106Z,10.40
2018-10-18T03:16:50.433Z,10.40
2018-10-18T03:19:23.649Z,10.40
2018-10-18T03:21:57.001Z,10.30
2018-10-18T03:24:30.371Z,10.30
2018-10-18T03:27:03.767Z,10.30
2018-10-18T03:29:37.423Z,10.40
2018-10-18T03:32:10.794Z,10.40
2018-10-18T03:34:43.959Z,10.30
2018-10-18T03:37:17.229Z,10.30
2018-10-18T03:39:50.454Z,10.30
2018-10-18T03:42:23.769Z,10.30
2018-10-18T03:44:57.194Z,10.30
2018-10-18T03:47:30.616Z,10.30
2018-10-18T03:50:03.858Z,10.20
2018-10-18T03:52:37.173Z,10.20
2018-10-18T03:55:10.314Z,10.20
2018-10-18T03:57:43.646Z,10.20
2018-10-18T04:00:16.979Z,10.20
2018-10-18T04:02:50.173Z,10.20
2018-10-18T04:05:23.719Z,10.20
2018-10-18T04:07:56.970Z,10.10
2018-10-18T04:10:30.206Z,10.10
2018-10-18T04:13:03.465Z,10.10
2018-10-18T04:15:36.829Z,10.10
2018-10-18T04:18:10.407Z,10.10
2018-10-18T04:20:43.728Z,10.10
2018-10-18T04:23:24.540Z,10.00
2018-10-18T04:25:57.946Z,10.00
2018-10-18T04:28:32.166Z,10.00
2018-10-18T04:31:05.489Z,10.00
2018-10-18T04:33:39.193Z,9.90
2018-10-18T04:36:12.668Z,10.00
2018-10-18T04:38:45.961Z,10.00
2018-10-18T04:41:19.167Z,10.00
2018-10-18T04:43:52.571Z,10.00
2018-10-18T04:46:25.902Z,10.00
2018-10-18T04:48:59.410Z,10.10
2018-10-18T04:51:32.612Z,10.20
2018-10-18T04:54:05.781Z,10.20
2018-10-18T04:56:38.977Z,10.20
2018-10-18T04:59:12.128Z,10.20
2018-10-18T05:01:45.393Z,10.10
2018-10-18T05:04:18.745Z,10.10
2018-10-18T05:06:52.254Z,10.10
2018-10-18T05:09:25.821Z,10.10
2018-10-18T05:11:59.197Z,10.10
2018-10-18T05:14:32.402Z,10.10
2018-10-18T05:17:05.826Z,10.00
2018-10-18T05:19:39.147Z,10.00
2018-10-18T05:22:12.391Z,10.00
2018-10-18T05:24:45.803Z,10.00
2018-10-18T05:27:19.009Z,10.00
2018-10-18T05:29:52.283Z,10.00
2018-10-18T05:32:25.486Z,10.00
2018-10-18T05:34:58.694Z,9.90
2018-10-18T05:37:32.015Z,9.90
2018-10-18T05:40:05.730Z,10.00
2018-10-18T05:42:39.180Z,10.00
2018-10-18T05:45:12.656Z,10.10
2018-10-18T05:47:46.076Z,10.10
2018-10-18T05:50:19.871Z,10.00
2018-10-18T05:52:53.278Z,10.00
2018-10-18T05:55:26.603Z,10.00
2018-10-18T05:58:00.529Z,10.00
2018-10-18T06:00:34.591Z,10.00
2018-10-18T06:03:08.682Z,10.00
2018-10-18T06:05:41.970Z,10.00
2018-10-18T06:08:15.259Z,10.10
2018-10-18T06:11:00.533Z,10.20
2018-10-18T06:13:34.499Z,10.20
2018-10-18T06:16:08.379Z,10.30
2018-10-18T06:18:42.468Z,10.30
2018-10-18T06:21:16.557Z,10.30
2018-10-18T06:23:50.483Z,10.30
2018-10-18T06:26:24.435Z,10.40
2018-10-18T06:28:58.483Z,10.40
2018-10-18T06:31:32.714Z,10.50
2018-10-18T06:34:06.502Z,10.50
2018-10-18T06:36:40.616Z,10.60
2018-10-18T06:39:14.585Z,10.70
2018-10-18T06:41:47.839Z,10.70
2018-10-18T06:44:21.157Z,10.80
2018-10-18T06:46:55.003Z,10.80
2018-10-18T06:49:28.237Z,10.90
2018-10-18T06:52:02.548Z,11.00
2018-10-18T06:54:36.117Z,11.20
2018-10-18T06:57:09.331Z,11.30
2018-10-18T06:59:42.707Z,11.50
2018-10-18T07:02:16.357Z,11.60
2018-10-18T07:04:50.036Z,11.80
2018-10-18T07:07:24.002Z,12.10
2018-10-18T07:09:58.297Z,12.30
2018-10-18T07:12:31.871Z,12.50
2018-10-18T07:15:06.468Z,12.80
2018-10-18T07:17:41.093Z,13.10
2018-10-18T07:20:15.253Z,13.30
2018-10-18T07:22:48.795Z,13.60
2018-10-18T07:25:22.784Z,13.80
2018-10-18T07:27:57.425Z,13.90
2018-10-18T07:30:31.729Z,14.10
2018-10-18T07:33:05.499Z,14.10
2018-10-18T07:35:38.862Z,14.00
2018-10-18T07:38:13.159Z,13.80
2018-10-18T07:40:48.037Z,13.60
2018-10-18T07:43:21.403Z,13.30
2018-10-18T07:45:59.458Z,13.10
2018-10-18T07:48:34.947Z,12.90
2018-10-18T07:51:08.524Z,12.80
2018-10-18T07:53:46.760Z,12.70
2018-10-18T07:56:21.155Z,12.60
2018-10-18T07:58:54.713Z,12.60
2018-10-18T08:01:29.711Z,12.70
2018-10-18T08:04:03.496Z,12.70
2018-10-18T08:06:37.608Z,12.70
2018-10-18T08:09:12.688Z,12.80
2018-10-18T08:11:46.339Z,12.80
2018-10-18T08:14:19.991Z,12.80
2018-10-18T08:16:53.891Z,12.80
2018-10-18T08:19:27.488Z,12.90
2018-10-18T08:22:01.654Z,12.90
2018-10-18T08:24:35.206Z,12.90
2018-10-18T08:27:09.683Z,13.00
2018-10-18T08:29:45.274Z,13.10
2018-10-18T08:32:20.784Z,13.10
2018-10-18T08:34:54.170Z,13.20
2018-10-18T08:37:27.788Z,13.20
2018-10-18T08:40:02.884Z,13.30
2018-10-18T08:42:39.367Z,13.40
2018-10-18T08:45:13.415Z,13.50
2018-10-18T08:47:55.307Z,13.50
2018-10-18T08:50:29.487Z,13.60
2018-10-18T08:53:04.053Z,13.60
2018-10-18T08:55:37.714Z,13.70
2018-10-18T08:58:15.558Z,13.70
2018-10-18T09:00:52.788Z,13.80
2018-10-18T09:03:27.739Z,13.80
2018-10-18T09:06:01.838Z,14.00
2018-10-18T09:08:35.934Z,14.00
2018-10-18T09:11:09.832Z,14.10
2018-10-18T09:13:44.582Z,14.10
2018-10-18T09:16:18.599Z,14.20
2018-10-18T09:18:54.351Z,14.30
2018-10-18T09:21:27.914Z,14.30
2018-10-18T09:24:01.939Z,14.30
2018-10-18T09:26:35.401Z,14.40
2018-10-18T09:29:09.991Z,14.40
2018-10-18T09:31:43.278Z,14.40
2018-10-18T09:34:18.039Z,14.40
2018-10-18T09:36:51.592Z,14.50
2018-10-18T09:39:25.817Z,14.50
2018-10-18T09:41:59.502Z,14.50
2018-10-18T09:44:33.381Z,14.60
2018-10-18T09:47:12.412Z,14.60
2018-10-18T09:49:45.644Z,14.60
2018-10-18T09:52:20.424Z,14.60
2018-10-18T09:54:54.102Z,14.70
2018-10-18T09:57:28.424Z,14.80
2018-10-18T10:00:03.053Z,14.80
2018-10-18T10:03:41.899Z,14.80
2018-10-18T10:06:15.901Z,14.90
2018-10-18T10:08:50.052Z,15.00
2018-10-18T10:11:24.508Z,15.10
2018-10-18T10:13:57.773Z,15.10
2018-10-18T10:16:31.591Z,15.20
2018-10-18T10:19:05.203Z,15.40
2018-10-18T10:21:39.207Z,15.50
2018-10-18T10:24:12.541Z,15.60
2018-10-18T10:26:45.802Z,15.70
2018-10-18T10:29:19.252Z,15.70
2018-10-18T10:31:52.671Z,15.60
2018-10-18T10:34:26.041Z,15.60
2018-10-18T10:37:00.129Z,15.60
2018-10-18T10:39:33.590Z,15.80
2018-10-18T10:42:08.136Z,15.80
2018-10-18T10:44:42.218Z,15.90
2018-10-18T10:47:15.571Z,16.00
2018-10-18T10:49:48.823Z,16.30
2018-10-18T10:52:22.578Z,16.80
2018-10-18T10:54:56.036Z,17.20
2018-10-18T10:57:30.314Z,17.50
2018-10-18T11:00:03.899Z,17.60
2018-10-18T11:02:37.626Z,17.40
2018-10-18T11:05:10.930Z,17.30
2018-10-18T11:07:45.701Z,17.10
2018-10-18T11:10:19.735Z,17.00
2018-10-18T11:12:53.075Z,17.00
2018-10-18T11:15:26.471Z,17.10
2018-10-18T11:17:59.828Z,17.00
2018-10-18T11:20:33.310Z,16.80
2018-10-18T11:23:06.626Z,16.50
2018-10-18T11:25:40.506Z,16.20
2018-10-18T11:28:14.990Z,16.10
2018-10-18T11:30:48.429Z,16.10
2018-10-18T11:33:21.708Z,16.20
2018-10-18T11:35:55.029Z,16.30
2018-10-18T11:38:28.922Z,16.40
2018-10-18T11:41:02.251Z,16.50
2018-10-18T11:43:35.420Z,16.50
2018-10-18T11:46:08.812Z,16.40
2018-10-18T11:48:42.584Z,16.50
2018-10-18T11:51:16.682Z,16.50
2018-10-18T11:53:50.667Z,16.60
2018-10-18T11:56:24.517Z,16.80
2018-10-18T11:58:57.893Z,16.80
2018-10-18T12:01:31.712Z,16.80
2018-10-18T12:04:05.685Z,16.70
2018-10-18T12:06:39.756Z,16.40
2018-10-18T12:09:12.988Z,16.20
2018-10-18T12:11:46.994Z,16.00
2018-10-18T12:14:20.536Z,15.70
2018-10-18T12:16:53.889Z,15.50
2018-10-18T12:19:27.447Z,15.30
2018-10-18T12:22:01.385Z,15.20
2018-10-18T12:24:34.724Z,15.10
2018-10-18T12:27:08.106Z,15.10
2018-10-18T12:29:42.028Z,15.10
2018-10-18T12:32:15.489Z,15.20
2018-10-18T12:34:48.694Z,15.10
2018-10-18T12:37:22.398Z,15.10
2018-10-18T12:39:55.672Z,15.10
2018-10-18T12:42:29.074Z,15.20
2018-10-18T12:45:02.573Z,15.40
2018-10-18T12:47:35.875Z,15.60
2018-10-18T12:50:09.211Z,15.70
2018-10-18T12:52:42.501Z,15.90
2018-10-18T12:55:15.908Z,15.90
2018-10-18T12:57:49.350Z,15.90
2018-10-18T13:00:22.691Z,16.00
2018-10-18T13:02:55.953Z,15.90
2018-10-18T13:05:29.929Z,15.90
2018-10-18T13:08:04.664Z,15.80
2018-10-18T13:10:39.274Z,15.70
2018-10-18T13:13:13.032Z,15.60
2018-10-18T13:15:46.432Z,15.50
2018-10-18T13:18:19.708Z,15.60
2018-10-18T13:20:53.012Z,15.60
2018-10-18T13:23:26.214Z,15.60
2018-10-18T13:25:59.556Z,15.50
2018-10-18T13:28:33.251Z,15.40
2018-10-18T13:31:06.598Z,15.40
2018-10-18T13:33:40.494Z,15.30
2018-10-18T13:36:13.935Z,15.40
2018-10-18T13:38:47.030Z,15.40
2018-10-18T13:41:20.193Z,15.30
2018-10-18T13:43:53.899Z,15.30
2018-10-18T13:46:27.070Z,15.30
2018-10-18T13:49:00.263Z,15.30
2018-10-18T13:51:33.739Z,15.30
2018-10-18T13:54:07.061Z,15.30
2018-10-18T13:56:40.266Z,15.30
2018-10-18T13:59:25.862Z,15.30
2018-10-18T14:01:59.614Z,15.30
2018-10-18T14:04:33.484Z,15.30
2018-10-18T14:07:07.138Z,15.30
2018-10-18T14:09:40.779Z,15.20
2018-10-18T14:12:14.728Z,15.10
2018-10-18T14:14:47.951Z,15.00
2018-10-18T14:17:21.333Z,15.00
2018-10-18T14:19:55.218Z,15.00
2018-10-18T14:22:29.093Z,14.90
2018-10-18T14:25:02.347Z,14.90
2018-10-18T14:27:36.463Z,14.90
2018-10-18T14:30:10.871Z,14.90
2018-10-18T14:32:44.355Z,14.90
2018-10-18T14:35:17.852Z,14.80
2018-10-18T14:37:51.422Z,14.90
2018-10-18T14:40:24.939Z,14.90
2018-10-18T14:42:58.747Z,14.80
2018-10-18T14:45:32.730Z,14.70
2018-10-18T14:48:06.164Z,14.70
2018-10-18T14:50:39.427Z,14.60
2018-10-18T14:53:12.747Z,14.70
2018-10-18T14:55:45.974Z,14.70
2018-10-18T14:58:19.717Z,14.80
2018-10-18T15:00:53.188Z,14.70
2018-10-18T15:03:26.726Z,14.80
2018-10-18T15:05:59.871Z,14.80
2018-10-18T15:08:33.940Z,14.70
2018-10-18T15:11:07.293Z,14.80
2018-10-18T15:13:40.821Z,14.80
2018-10-18T15:16:14.299Z,14.70
2018-10-18T15:18:48.283Z,14.70
2018-10-18T15:21:21.746Z,14.70
2018-10-18T15:23:54.987Z,14.70
2018-10-18T15:26:28.360Z,14.70
2018-10-18T15:29:01.526Z,14.80
2018-10-18T15:31:34.687Z,14.70
2018-10-18T15:34:08.024Z,14.70
2018-10-18T15:36:41.309Z,14.70
2018-10-18T15:39:14.683Z,14.80
2018-10-18T15:41:47.935Z,14.80
2018-10-18T15:44:21.167Z,14.70
2018-10-18T15:46:55.113Z,14.70
2018-10-18T15:49:28.429Z,14.60
2018-10-18T15:52:02.363Z,14.60
2018-10-18T15:54:35.997Z,14.70
2018-10-18T15:57:09.517Z,14.60
2018-10-18T15:59:42.684Z,14.70
2018-10-18T16:02:16.008Z,14.70
2018-10-18T16:04:49.804Z,14.70
2018-10-18T16:07:23.217Z,14.70
2018-10-18T16:09:56.534Z,14.70
2018-10-18T16:12:30.319Z,14.60
2018-10-18T16:15:03.663Z,14.60
2018-10-18T16:17:37.103Z,14.60
2018-10-18T16:20:10.639Z,14.60
2018-10-18T16:22:43.917Z,14.60
2018-10-18T16:25:17.207Z,14.60
2018-10-18T16:27:53.478Z,14.60
2018-10-18T16:30:27.456Z,14.60
2018-10-18T16:33:00.875Z,14.60
2018-10-18T16:35:34.700Z,14.60
2018-10-18T16:38:08.052Z,14.60
2018-10-18T16:40:42.264Z,14.60
2018-10-18T16:43:15.387Z,14.60
2018-10-18T16:45:49.036Z,14.60
2018-10-18T16:48:22.617Z,14.50
2018-10-18T16:50:56.361Z,14.60
2018-10-18T16:53:31.390Z,14.50
2018-10-18T16:56:05.435Z,14.50
2018-10-18T16:58:39.204Z,14.50
2018-10-18T17:01:13.244Z,14.40
2018-10-18T17:03:47.271Z,14.30
2018-10-18T17:06:21.715Z,14.10
2018-10-18T17:08:55.195Z,14.10
2018-10-18T17:11:29.319Z,14.00
2018-10-18T17:14:03.416Z,13.90
2018-10-18T17:16:37.178Z,13.80
2018-10-18T17:19:11.224Z,13.90
2018-10-18T17:21:45.153Z,13.90
2018-10-18T17:24:19.298Z,14.00
2018-10-18T17:26:53.632Z,13.90
2018-10-18T17:29:27.344Z,13.90
2018-10-18T17:32:01.269Z,13.90
2018-10-18T17:34:35.321Z,13.90
2018-10-18T17:37:09.317Z,13.90
2018-10-18T17:39:43.247Z,13.90
2018-10-18T17:42:17.360Z,13.90
2018-10-18T17:44:52.619Z,13.90
2018-10-18T17:47:26.098Z,13.80
2018-10-18T17:50:00.136Z,13.80
2018-10-18T17:52:34.699Z,13.80
2018-10-18T17:55:08.234Z,13.80
2018-10-18T17:57:42.241Z,13.80
2018-10-18T18:00:16.330Z,13.80
2018-10-18T18:02:51.573Z,13.80
2018-10-18T18:05:24.984Z,13.80
2018-10-18T18:07:58.253Z,13.80
2018-10-18T18:10:32.305Z,13.90
2018-10-18T18:13:06.222Z,13.90
2018-10-18T18:15:40.375Z,13.90
2018-10-18T18:18:14.224Z,13.80
2018-10-18T18:20:48.273Z,13.80
2018-10-18T18:23:22.286Z,13.80
2018-10-18T18:25:55.857Z,13.70
2018-10-18T18:28:29.647Z,13.70
2018-10-18T18:31:03.193Z,13.60
2018-10-18T18:33:37.192Z,13.60
2018-10-18T18:36:12.408Z,13.60
2018-10-18T18:38:46.328Z,13.60
2018-10-18T18:41:20.334Z,13.60
2018-10-18T18:43:54.426Z,13.70
2018-10-18T18:46:29.198Z,13.70
2018-10-18T18:49:03.208Z,13.60
2018-10-18T18:51:37.403Z,13.60
2018-10-18T18:54:11.708Z,13.60
2018-10-18T18:56:45.276Z,13.60
2018-10-18T18:59:20.033Z,13.60
2018-10-18T19:01:54.481Z,13.50
2018-10-18T19:04:28.058Z,13.50
2018-10-18T19:07:01.788Z,13.50
2018-10-18T19:09:35.090Z,13.50
2018-10-18T19:12:08.489Z,13.50
2018-10-18T19:14:41.810Z,13.50
2018-10-18T19:17:15.732Z,13.50
2018-10-18T19:19:50.010Z,13.50
2018-10-18T19:22:24.591Z,13.40
2018-10-18T19:24:58.499Z,13.40
2018-10-18T19:27:31.815Z,13.40
2018-10-18T19:30:06.574Z,13.30
2018-10-18T19:32:40.769Z,13.20
2018-10-18T19:35:14.492Z,13.20
2018-10-18T19:37:48.570Z,13.10
2018-10-18T19:40:22.656Z,13.10
2018-10-18T19:42:55.877Z,13.20
2018-10-18T19:45:33.144Z,13.20
2018-10-18T19:48:12.782Z,13.20
2018-10-18T19:50:48.100Z,13.20
2018-10-18T19:53:22.028Z,13.10
2018-10-18T19:55:55.768Z,13.20
2018-10-18T19:58:29.997Z,13.10
2018-10-18T20:01:03.909Z,13.10
2018-10-18T20:03:38.625Z,13.00
2018-10-18T20:06:12.862Z,13.00
2018-10-18T20:08:46.738Z,12.90
2018-10-18T20:11:21.254Z,12.90
2018-10-18T20:13:55.556Z,12.90
2018-10-18T20:16:29.618Z,12.90
2018-10-18T20:19:04.224Z,12.90
2018-10-18T20:21:38.432Z,12.90
2018-10-18T20:24:12.352Z,12.90
2018-10-18T20:26:46.197Z,12.90
2018-10-18T20:29:20.316Z,12.90
2018-10-18T20:31:55.137Z,12.90
2018-10-18T20:34:29.147Z,13.00
2018-10-18T20:37:04.011Z,13.00
2018-10-18T20:39:38.080Z,13.00
2018-10-18T20:42:12.010Z,13.00
2018-10-18T20:44:46.594Z,13.10
2018-10-18T20:47:20.324Z,13.00
2018-10-18T20:49:54.215Z,13.00
2018-10-18T20:52:28.111Z,13.00
2018-10-18T20:55:02.492Z,13.00
2018-10-18T20:57:36.135Z,12.90
2018-10-18T21:00:10.446Z,12.90
2018-10-18T21:02:44.289Z,13.00
2018-10-18T21:05:18.465Z,12.90
2018-10-18T21:07:53.963Z,12.90
2018-10-18T21:10:28.433Z,12.80
2018-10-18T21:13:04.833Z,12.80
2018-10-18T21:15:38.194Z,12.80
2018-10-18T21:18:12.449Z,12.90
2018-10-18T21:20:46.234Z,12.90
2018-10-18T21:23:20.780Z,12.90
2018-10-18T21:25:54.366Z,12.80
2018-10-18T21:28:28.386Z,12.90
2018-10-18T21:31:03.699Z,12.80
2018-10-18T21:33:38.579Z,12.90
2018-10-18T21:36:12.865Z,12.90
2018-10-18T21:38:46.994Z,12.80
2018-10-18T21:41:20.313Z,12.80
2018-10-18T21:43:54.708Z,12.80
2018-10-18T21:46:28.696Z,12.80
2018-10-18T21:49:03.010Z,12.70
2018-10-18T21:51:37.274Z,12.70
2018-10-18T21:54:11.180Z,12.60
2018-10-18T21:56:45.280Z,12.60
2018-10-18T21:59:19.164Z,12.60
2018-10-18T22:01:53.872Z,12.60
2018-10-18T22:04:28.125Z,12.50
2018-10-18T22:07:02.088Z,12.50
2018-10-18T22:09:36.266Z,12.50
2018-10-18T22:12:10.080Z,12.50
2018-10-18T22:14:44.719Z,12.50
2018-10-18T22:17:18.037Z,12.50
2018-10-18T22:19:53.677Z,12.50
2018-10-18T22:22:27.808Z,12.40
2018-10-18T22:25:01.092Z,12.40
2018-10-18T22:27:34.950Z,12.40
2018-10-18T22:30:08.982Z,12.40
2018-10-18T22:32:43.689Z,12.30
2018-10-18T22:35:17.862Z,12.30
2018-10-18T22:37:54.621Z,12.20
2018-10-18T22:40:28.304Z,12.20
2018-10-18T22:43:02.341Z,12.10
2018-10-18T22:45:36.297Z,12.10
2018-10-18T22:48:09.562Z,12.00
2018-10-18T22:50:42.844Z,11.90
2018-10-18T22:53:16.691Z,11.80
2018-10-18T22:55:50.025Z,11.80
2018-10-18T22:58:24.632Z,11.70
2018-10-18T23:00:58.098Z,11.80
2018-10-18T23:03:31.325Z,11.80
2018-10-18T23:06:04.629Z,11.80
2018-10-18T23:08:38.192Z,11.80
2018-10-18T23:11:11.560Z,11.70
2018-10-18T23:13:44.977Z,11.80
2018-10-18T23:16:18.277Z,11.60
2018-10-18T23:18:53.225Z,11.60
2018-10-18T23:21:26.479Z,11.60
2018-10-18T23:23:59.666Z,11.50
2018-10-18T23:26:33.141Z,11.50
2018-10-18T23:29:07.001Z,11.50
2018-10-18T23:31:40.454Z,11.60
2018-10-18T23:34:13.789Z,11.60
2018-10-18T23:36:47.222Z,11.50
2018-10-18T23:39:20.518Z,11.50
2018-10-18T23:41:53.908Z,11.40
2018-10-18T23:44:27.775Z,11.40
2018-10-18T23:47:01.193Z,11.40
2018-10-18T23:49:35.790Z,11.30
2018-10-18T23:52:08.967Z,11.30
2018-10-18T23:54:42.227Z,11.30
2018-10-18T23:57:16.311Z,11.20
2018-10-18T23:59:49.527Z,11.20
